Time;durP1;ratioP1;P1;durP2;ratioP2;P2;SDS_P1;SDS_P2;PMS_P1;PMS_P2;Temp;Humidity;BMP_temperature;BMP_pressure;BME280_temperature;BME280_humidity;BME280_pressure;Samples;Min_cycle;Max_cycle;Signal;HPM_P1;HPM_P2
2021/01/16 00:01:05;;;;;;;2.35;1.90;;;;;;;23.06;33.82;94628.72;4973806;28;20523;-73
2021/01/16 00:03:31;;;;;;;2.30;2.00;;;;;;;23.05;33.97;94626.50;4973807;28;20026;-73
2021/01/16 00:05:59;;;;;;;3.63;2.22;;;;;;;23.04;33.72;94636.66;4974035;28;20118;-72
2021/01/16 00:08:24;;;;;;;2.63;2.08;;;;;;;23.02;33.90;94639.16;4973686;28;20031;-72
2021/01/16 00:10:51;;;;;;;2.75;2.10;;;;;;;23.00;33.68;94641.66;4972423;28;20034;-74
2021/01/16 00:13:18;;;;;;;2.50;1.88;;;;;;;22.80;33.81;94606.00;4973422;28;20065;-73
2021/01/16 00:15:44;;;;;;;3.45;2.30;;;;;;;22.95;34.16;94623.41;4972361;28;20547;-73
2021/01/16 00:18:11;;;;;;;3.13;2.28;;;;;;;22.93;33.98;94631.34;4973275;28;20471;-73
2021/01/16 00:20:38;;;;;;;3.30;2.30;;;;;;;22.92;34.12;94618.94;4973461;28;20066;-74
2021/01/16 00:23:04;;;;;;;3.65;2.40;;;;;;;22.92;34.04;94621.69;4973342;28;20030;-73
2021/01/16 00:25:30;;;;;;;2.83;2.20;;;;;;;22.88;34.02;94606.88;4973564;28;20121;-74
2021/01/16 00:27:55;;;;;;;3.08;2.17;;;;;;;22.88;34.02;94617.06;4973315;28;20037;-73
2021/01/16 00:30:23;;;;;;;2.78;2.20;;;;;;;22.88;33.85;94601.44;4973363;28;20125;-73
2021/01/16 00:32:49;;;;;;;3.22;2.30;;;;;;;22.88;34.20;94613.09;4973078;28;20038;-73
2021/01/16 00:35:15;;;;;;;3.20;2.33;;;;;;;22.76;34.20;94583.06;4973589;28;20100;-73
2021/01/16 00:37:44;;;;;;;2.75;2.20;;;;;;;22.75;33.96;94581.56;4973338;28;20023;-73
2021/01/16 00:40:11;;;;;;;3.70;2.40;;;;;;;22.85;34.04;94599.03;4972255;28;20042;-73
2021/01/16 00:42:40;;;;;;;3.50;2.05;;;;;;;22.84;34.00;94600.25;4974029;28;20111;-73
2021/01/16 00:45:06;;;;;;;3.33;2.13;;;;;;;22.84;33.83;94605.72;4973634;28;20042;-73
2021/01/16 00:47:34;;;;;;;2.90;2.20;;;;;;;22.80;33.91;94595.13;4973189;28;20101;-73
2021/01/16 00:50:00;;;;;;;3.35;2.30;;;;;;;22.78;33.99;94596.88;4973789;28;20492;-73
2021/01/16 00:52:25;;;;;;;3.35;2.50;;;;;;;22.77;34.16;94598.16;4971797;28;20169;-74
2021/01/16 00:54:51;;;;;;;3.30;2.22;;;;;;;22.76;34.63;94593.94;4973317;28;20086;-74
2021/01/16 00:57:16;;;;;;;2.83;2.22;;;;;;;22.64;34.18;94581.72;4973189;28;20027;-73
2021/01/16 00:59:42;;;;;;;3.03;2.03;;;;;;;22.75;33.91;94600.63;4972125;28;20062;-73
2021/01/16 01:02:07;;;;;;;2.78;2.10;;;;;;;22.75;34.23;94593.22;4972938;28;20027;-73
2021/01/16 01:04:33;;;;;;;3.17;2.20;;;;;;;22.76;34.16;94585.78;4972890;28;20042;-73
2021/01/16 01:07:00;;;;;;;3.17;2.20;;;;;;;22.74;34.09;94591.00;4973283;28;20030;-74
2021/01/16 01:09:27;;;;;;;3.78;2.10;;;;;;;22.73;34.01;94594.97;4973134;28;20436;-73
2021/01/16 01:11:52;;;;;;;2.25;2.05;;;;;;;22.56;34.38;94569.97;4973014;28;20058;-73
2021/01/16 01:14:18;;;;;;;2.67;2.00;;;;;;;22.68;33.98;94593.78;4972080;28;20059;-73
2021/01/16 01:16:43;;;;;;;2.60;2.13;;;;;;;22.68;34.29;94593.78;4972493;28;20054;-72
2021/01/16 01:19:09;;;;;;;3.25;2.20;;;;;;;22.68;34.19;94593.78;4973009;28;20483;-72
2021/01/16 01:21:34;;;;;;;2.88;2.38;;;;;;;22.66;34.13;94584.66;4972790;28;20492;-72
2021/01/16 01:23:59;;;;;;;2.45;2.05;;;;;;;22.65;34.31;94583.94;4972687;28;20037;-72
2021/01/16 01:26:25;;;;;;;3.13;2.40;;;;;;;22.65;34.11;94594.09;4972808;28;20089;-72
2021/01/16 01:28:50;;;;;;;3.00;2.33;;;;;;;22.66;34.31;94592.81;4972737;28;20035;-74
2021/01/16 01:31:16;;;;;;;3.00;2.38;;;;;;;22.64;34.20;94581.72;4972484;28;20038;-72
2021/01/16 01:33:41;;;;;;;3.83;2.30;;;;;;;22.62;34.34;94584.97;4972106;28;20038;-72
2021/01/16 01:36:07;;;;;;;3.08;2.58;;;;;;;22.61;34.22;94580.75;4972640;28;20035;-72
2021/01/16 01:38:32;;;;;;;3.67;2.38;;;;;;;22.60;34.21;94570.38;4972597;28;20062;-73
2021/01/16 01:41:01;;;;;;;3.35;2.20;;;;;;;22.62;34.41;94584.97;4972595;28;20085;-73
2021/01/16 01:43:26;;;;;;;3.10;2.22;;;;;;;22.61;34.22;94571.88;4972785;28;20030;-72
2021/01/16 01:45:52;;;;;;;3.33;2.47;;;;;;;22.57;34.15;94566.72;4972214;28;20480;-72
2021/01/16 01:48:18;;;;;;;3.03;2.42;;;;;;;22.59;34.29;94558.06;4970711;28;20035;-72
2021/01/16 01:50:43;;;;;;;2.47;2.10;;;;;;;22.60;34.24;94573.13;4971989;28;20037;-73
2021/01/16 01:53:09;;;;;;;2.80;2.20;;;;;;;22.58;34.06;94572.91;4971649;28;20844;-74
2021/01/16 01:55:34;;;;;;;3.13;2.30;;;;;;;22.57;34.32;94560.53;4954504;28;20489;-72
2021/01/16 01:58:00;;;;;;;2.80;2.30;;;;;;;22.59;34.38;94568.94;4970671;28;20030;-73
2021/01/16 02:00:25;;;;;;;2.83;2.13;;;;;;;22.59;34.32;94566.94;4971637;28;20035;-73
2021/01/16 02:02:53;;;;;;;2.60;2.00;;;;;;;22.59;34.30;94566.22;4971342;28;20637;-72
2021/01/16 02:05:18;;;;;;;2.70;2.08;;;;;;;22.59;34.38;94566.94;4971048;28;20034;-71
2021/01/16 02:07:44;;;;;;;2.85;2.17;;;;;;;22.58;34.37;94562.00;4978970;28;20057;-73
2021/01/16 02:10:19;;;;;;;3.00;2.10;;;;;;;22.57;34.24;94555.09;4996588;28;20034;-70
2021/01/16 02:12:45;;;;;;;3.60;2.30;;;;;;;22.37;34.52;94525.69;4995862;28;20037;-72
2021/01/16 02:15:16;;;;;;;2.35;1.95;;;;;;;22.55;34.28;94557.59;4996307;28;20039;-72
2021/01/16 02:17:42;;;;;;;2.40;1.98;;;;;;;22.52;34.41;94558.63;4997127;28;20047;-72
2021/01/16 02:20:09;;;;;;;2.10;1.88;;;;;;;22.53;34.40;94562.84;4976053;28;20030;-74
2021/01/16 02:23:15;;;;;;;3.00;2.15;;;;;;;22.55;34.17;94563.03;4971507;28;20129;-72
2021/01/16 02:25:40;;;;;;;2.83;2.40;;;;;;;22.53;34.36;94557.38;4970574;28;20039;-73
2021/01/16 02:28:07;;;;;;;2.72;2.08;;;;;;;22.53;34.27;94560.84;4971397;28;20100;-73
2021/01/16 02:30:34;;;;;;;2.90;2.40;;;;;;;22.52;34.41;94569.50;4970301;28;20022;-73
2021/01/16 02:32:59;;;;;;;2.63;2.30;;;;;;;22.51;34.50;94557.16;4970478;28;20030;-73
2021/01/16 02:35:24;;;;;;;2.63;2.28;;;;;;;22.48;34.06;94558.19;4954419;28;20035;-73
2021/01/16 02:38:18;;;;;;;3.40;2.63;;;;;;;22.47;34.23;94556.72;4972031;28;20336;-74
2021/01/16 02:40:46;;;;;;;2.75;2.03;;;;;;;22.39;34.43;94566.72;4970661;28;20122;-72
2021/01/16 02:43:12;;;;;;;3.38;2.20;;;;;;;22.35;34.47;94560.81;4969828;28;20031;-72
2021/01/16 02:45:52;;;;;;;2.95;2.20;;;;;;;22.36;34.52;94559.59;4971157;28;20042;-72
2021/01/16 02:48:19;;;;;;;3.80;2.22;;;;;;;22.24;34.31;94538.47;4969913;28;20031;-72
2021/01/16 02:50:49;;;;;;;3.03;2.15;;;;;;;22.39;34.50;94553.13;4969783;28;20175;-72
2021/01/16 02:53:14;;;;;;;;;;;;;;;22.40;34.37;94556.56;4970962;28;20065;-71
2021/01/16 02:55:40;;;;;;;2.60;2.30;;;;;;;22.42;34.44;94554.81;4969481;28;19945;-72
2021/01/16 02:58:06;;;;;;;3.05;2.10;;;;;;;22.44;34.37;94557.75;4970519;28;20027;-73
2021/01/16 03:00:31;;;;;;;2.72;2.10;;;;;;;22.44;34.44;94557.75;4970611;28;20153;-71
2021/01/16 03:02:57;;;;;;;3.10;2.30;;;;;;;22.44;34.23;94563.19;4970628;28;20027;-72
2021/01/16 03:05:22;;;;;;;3.03;2.13;;;;;;;22.43;34.40;94550.81;4970313;28;20441;-72
2021/01/16 03:07:48;;;;;;;2.40;1.90;;;;;;;22.42;34.50;94562.97;4970451;28;20019;-71
2021/01/16 03:10:14;;;;;;;3.55;2.20;;;;;;;22.44;34.30;94555.03;4970336;28;20404;-73
2021/01/16 03:12:39;;;;;;;2.88;2.13;;;;;;;22.42;34.36;94552.81;4969291;28;20113;-73
2021/01/16 03:15:13;;;;;;;2.65;1.90;;;;;;;22.39;34.38;94555.84;4969669;28;20401;-72
2021/01/16 03:17:55;;;;;;;2.78;2.28;;;;;;;22.39;34.44;94561.28;4970192;28;20070;-72
2021/01/16 03:20:22;;;;;;;3.60;2.40;;;;;;;22.41;34.39;94558.78;4970313;28;20121;-73
2021/01/16 03:22:49;;;;;;;2.65;1.95;;;;;;;22.41;34.37;94558.78;4970357;28;20031;-72
2021/01/16 03:25:19;;;;;;;3.00;2.22;;;;;;;22.39;34.40;94547.69;4970400;28;20499;-72
2021/01/16 03:27:44;;;;;;;2.92;2.10;;;;;;;22.36;34.20;94546.00;4970252;28;20077;-72
2021/01/16 03:30:11;;;;;;;3.35;2.13;;;;;;;22.37;34.47;94535.84;4969968;28;20524;-72
2021/01/16 03:32:36;;;;;;;2.50;1.73;;;;;;;22.39;34.43;94555.84;4968830;28;20022;-73
2021/01/16 03:35:03;;;;;;;3.22;2.20;;;;;;;22.38;34.41;94554.38;4968888;28;20456;-72
2021/01/16 03:37:28;;;;;;;2.83;2.10;;;;;;;22.39;34.46;94550.41;4970333;28;20435;-72
2021/01/16 03:39:54;;;;;;;3.10;2.20;;;;;;;22.38;34.32;94550.91;4970057;28;20023;-70
2021/01/16 03:42:19;;;;;;;3.80;2.42;;;;;;;22.38;34.42;94554.38;4969765;28;20022;-73
2021/01/16 03:44:46;;;;;;;2.17;1.88;;;;;;;22.39;34.44;94550.41;4970387;28;20034;-73
2021/01/16 03:47:11;;;;;;;3.05;2.20;;;;;;;22.37;34.31;94552.88;4970063;28;20051;-73
2021/01/16 03:49:37;;;;;;;2.78;2.00;;;;;;;22.38;34.36;94546.19;4969861;28;20121;-73
2021/01/16 03:52:03;;;;;;;2.80;2.10;;;;;;;22.37;34.41;94550.16;4969887;28;20043;-73
2021/01/16 03:54:28;;;;;;;2.67;2.10;;;;;;;22.35;34.37;94549.94;4970218;28;20133;-72
2021/01/16 03:56:54;;;;;;;2.72;1.90;;;;;;;22.37;34.30;94552.88;4969680;28;20484;-71
2021/01/16 03:59:20;;;;;;;3.58;2.45;;;;;;;22.26;34.23;94542.13;4969963;28;20039;-73
2021/01/16 04:01:47;;;;;;;3.17;2.10;;;;;;;22.36;34.28;94551.44;4968770;28;20019;-73
2021/01/16 04:04:13;;;;;;;3.72;2.40;;;;;;;22.32;34.50;94540.09;4969178;28;20129;-73
2021/01/16 04:06:38;;;;;;;2.50;1.92;;;;;;;22.36;34.38;94546.00;4970040;28;20037;-73
2021/01/16 04:09:04;;;;;;;3.08;2.10;;;;;;;22.36;34.43;94546.00;4969712;28;20035;-73
2021/01/16 04:11:29;;;;;;;2.30;1.90;;;;;;;22.37;34.46;94546.72;4969947;28;20031;-74
2021/01/16 04:13:55;;;;;;;2.60;1.98;;;;;;;22.34;34.20;94543.03;4969535;28;20488;-74
2021/01/16 04:16:20;;;;;;;2.80;1.90;;;;;;;22.35;34.41;94549.94;4969683;28;20042;-73
2021/01/16 04:18:46;;;;;;;2.78;2.20;;;;;;;22.33;34.39;94552.47;4984722;28;20141;-73
2021/01/16 04:21:11;;;;;;;2.60;2.20;;;;;;;22.32;34.43;94550.97;4969695;28;20066;-73
2021/01/16 04:23:37;;;;;;;2.85;1.98;;;;;;;22.34;34.32;94543.03;4969493;28;20404;-73
2021/01/16 04:26:02;;;;;;;2.58;2.10;;;;;;;22.36;34.36;94540.53;4970747;28;20416;-73
2021/01/16 04:28:28;;;;;;;2.60;2.00;;;;;;;22.36;34.55;94537.81;4973236;28;20105;-73
2021/01/16 04:30:53;;;;;;;3.63;2.30;;;;;;;22.36;34.31;94551.44;4973248;28;20479;-73
2021/01/16 04:33:19;;;;;;;3.13;2.25;;;;;;;22.36;34.37;94551.44;4973503;28;20345;-73
2021/01/16 04:35:44;;;;;;;2.35;1.85;;;;;;;22.30;34.31;94553.47;4973284;28;20054;-73
2021/01/16 04:38:10;;;;;;;3.22;2.05;;;;;;;22.24;34.37;94555.53;4973250;28;20038;-73
2021/01/16 04:40:36;;;;;;;3.85;2.00;;;;;;;22.15;34.36;94558.56;4973057;28;20030;-73
2021/01/16 04:43:02;;;;;;;3.22;2.10;;;;;;;22.08;34.51;94559.13;4973108;28;20053;-72
2021/01/16 04:45:28;;;;;;;2.53;2.03;;;;;;;22.02;34.71;94555.00;4973044;28;20038;-73
2021/01/16 04:47:56;;;;;;;2.47;1.95;;;;;;;22.04;34.81;94564.09;4972636;28;20035;-73
2021/01/16 04:50:21;;;;;;;2.92;2.20;;;;;;;22.08;34.46;94564.56;4971745;28;20034;-73
2021/01/16 04:52:47;;;;;;;2.72;2.10;;;;;;;22.14;34.56;94557.09;4971602;28;20030;-73
2021/01/16 04:55:14;;;;;;;2.55;2.15;;;;;;;22.19;34.52;94564.44;4954394;28;20027;-73
2021/01/16 04:57:40;;;;;;;2.60;2.00;;;;;;;22.23;34.36;94543.16;4934442;29;20032;-73
2021/01/16 05:00:10;;;;;;;2.40;2.00;;;;;;;22.22;34.20;94552.56;4934051;29;20505;-74
2021/01/16 05:02:39;;;;;;;3.17;2.20;;;;;;;22.34;34.28;94559.34;4954811;28;20082;-73
2021/01/16 05:05:08;;;;;;;3.28;2.25;;;;;;;22.35;34.15;94577.16;4952456;29;20035;-72
2021/01/16 05:07:34;;;;;;;3.42;2.35;;;;;;;22.24;34.16;94555.53;4941902;28;20038;-77
2021/01/16 05:10:00;;;;;;;2.78;2.10;;;;;;;22.39;34.27;94566.72;4959582;28;20027;-81
2021/01/16 05:12:31;;;;;;;2.58;2.10;;;;;;;22.40;34.18;94573.63;4943993;29;20023;-78
2021/01/16 05:15:06;;;;;;;3.25;2.00;;;;;;;22.39;34.27;94560.53;4943360;28;20436;-78
2021/01/16 05:17:36;;;;;;;3.13;2.25;;;;;;;22.36;34.17;94573.19;4944029;29;20035;-74
2021/01/16 05:20:01;;;;;;;2.75;2.00;;;;;;;22.39;34.24;94561.28;4941603;29;20051;-77
2021/01/16 05:22:27;;;;;;;2.42;2.22;;;;;;;22.43;34.22;94572.59;4944669;29;21229;-75
2021/01/16 05:24:53;;;;;;;2.95;2.10;;;;;;;22.42;33.97;94565.69;4941493;29;20090;-76
2021/01/16 05:27:22;;;;;;;2.53;2.03;;;;;;;22.43;34.01;94572.59;4942281;29;20122;-78
2021/01/16 05:29:47;;;;;;;2.22;1.95;;;;;;;22.22;34.28;94536.25;4943228;29;20079;-79
2021/01/16 05:32:13;;;;;;;2.65;2.20;;;;;;;22.37;34.30;94557.59;4942532;29;20051;-77
2021/01/16 05:34:39;;;;;;;3.60;2.40;;;;;;;22.44;34.25;94584.97;4953773;28;20038;-79
2021/01/16 05:37:04;;;;;;;3.67;2.08;;;;;;;22.41;34.15;94569.66;4942825;28;20023;-77
2021/01/16 05:39:30;;;;;;;2.92;2.20;;;;;;;22.38;34.06;94575.41;4943325;28;20100;-78
2021/01/16 05:41:59;;;;;;;3.03;2.20;;;;;;;22.40;34.14;94568.19;4934001;29;20038;-79
2021/01/16 05:44:25;;;;;;;3.30;2.40;;;;;;;22.41;34.14;94570.38;4933901;29;20027;-77
2021/01/16 05:46:50;;;;;;;2.67;2.00;;;;;;;22.44;34.00;94568.63;4953474;28;20035;-72
2021/01/16 05:49:16;;;;;;;2.65;1.90;;;;;;;22.27;34.33;94548.31;4919335;29;20031;-73
2021/01/16 05:51:45;;;;;;;3.03;2.13;;;;;;;22.41;34.10;94562.22;4938159;29;20028;-73
2021/01/16 05:54:14;;;;;;;3.75;2.10;;;;;;;22.43;33.98;94561.72;4939722;28;20028;-75
2021/01/16 05:56:41;;;;;;;2.63;1.87;;;;;;;22.46;33.96;94566.13;4935960;29;20070;-76
2021/01/16 05:59:10;;;;;;;2.90;2.10;;;;;;;22.41;33.94;94566.94;4943948;29;20031;-77
2021/01/16 06:01:37;;;;;;;2.63;2.10;;;;;;;22.41;33.94;94566.22;4939119;28;20035;-74
2021/01/16 06:04:02;;;;;;;3.13;2.22;;;;;;;22.35;33.89;94549.94;4942816;29;20570;-77
2021/01/16 06:06:28;;;;;;;3.17;2.03;;;;;;;22.44;33.88;94568.63;4937433;29;20027;-79
2021/01/16 06:08:54;;;;;;;3.33;2.17;;;;;;;22.40;34.03;94557.28;4945873;29;20042;-79
2021/01/16 06:11:20;;;;;;;2.70;2.10;;;;;;;22.41;34.11;94550.63;4926159;29;20031;-76
2021/01/16 06:13:51;;;;;;;2.90;2.13;;;;;;;22.46;34.29;94557.97;4945157;29;20031;-77
2021/01/16 06:16:18;;;;;;;2.67;2.08;;;;;;;22.46;34.43;94561.41;4952014;29;20027;-75
2021/01/16 06:18:56;;;;;;;3.20;2.20;;;;;;;22.49;34.30;94563.09;4952376;28;20051;-74
2021/01/16 06:21:27;;;;;;;3.35;2.30;;;;;;;22.40;34.12;94557.28;4951953;29;20062;-75
2021/01/16 06:23:54;;;;;;;2.97;2.15;;;;;;;22.57;34.22;94571.41;4935078;29;20055;-72
2021/01/16 06:26:20;;;;;;;4.03;2.50;;;;;;;22.59;34.10;94564.22;4941592;29;20122;-74
2021/01/16 06:29:02;;;;;;;2.53;2.20;;;;;;;22.62;34.05;94559.75;4932189;29;20046;-74
2021/01/16 06:31:31;;;;;;;2.70;2.22;;;;;;;22.71;33.88;94564.81;4933362;29;20020;-75
2021/01/16 06:34:02;;;;;;;3.50;2.67;;;;;;;22.79;33.73;94560.97;4932144;29;20119;-73
2021/01/16 06:36:29;;;;;;;3.33;2.50;;;;;;;22.86;33.81;94565.09;4933390;29;20031;-75
2021/01/16 06:38:58;;;;;;;3.22;2.42;;;;;;;22.91;33.91;94573.94;4932873;29;20028;-77
2021/01/16 06:41:34;;;;;;;6.50;2.60;;;;;;;22.98;34.21;94573.34;4932960;29;20035;-76
2021/01/16 06:44:00;;;;;;;4.30;2.42;;;;;;;23.02;34.12;94568.34;4933226;29;20275;-75
2021/01/16 06:46:45;;;;;;;3.78;2.30;;;;;;;23.13;33.90;94575.63;4933009;29;20115;-76
2021/01/16 06:49:23;;;;;;;5.50;2.90;;;;;;;23.19;34.06;94585.19;4932931;29;20027;-75
2021/01/16 06:51:53;;;;;;;3.47;2.50;;;;;;;23.26;33.92;94576.41;4935191;29;20051;-76
2021/01/16 06:54:22;;;;;;;4.53;2.50;;;;;;;23.37;34.35;94589.84;4933064;29;20541;-74
2021/01/16 06:56:57;;;;;;;3.63;2.33;;;;;;;23.44;34.42;94581.81;4932845;29;20429;-75
2021/01/16 06:59:25;;;;;;;4.32;2.40;;;;;;;23.52;33.97;94579.22;4935515;29;20135;-74
2021/01/16 07:01:51;;;;;;;3.35;2.28;;;;;;;23.53;33.97;94572.50;4934366;29;20020;-74
2021/01/16 07:04:16;;;;;;;4.88;2.47;;;;;;;23.66;33.70;94580.75;4915133;29;20059;-74
2021/01/16 07:06:48;;;;;;;5.20;2.53;;;;;;;23.72;33.77;94584.09;4915460;29;20043;-74
2021/01/16 07:09:20;;;;;;;3.75;2.05;;;;;;;23.80;33.26;94588.44;4932420;29;20122;-74
2021/01/16 07:11:52;;;;;;;4.20;2.30;;;;;;;23.83;33.46;94573.03;4937148;29;20484;-70
2021/01/16 07:14:19;;;;;;;5.40;2.58;;;;;;;23.90;33.12;94590.22;4950408;29;20475;-73
2021/01/16 07:16:45;;;;;;;5.45;2.70;;;;;;;23.92;33.39;94582.25;4905359;28;20055;-74
2021/01/16 07:19:11;;;;;;;5.38;3.05;;;;;;;23.97;33.62;94592.31;4941969;29;20102;-72
2021/01/16 07:21:40;;;;;;;4.68;2.28;;;;;;;24.07;33.20;94581.75;4942079;29;20134;-77
2021/01/16 07:24:10;;;;;;;5.60;2.72;;;;;;;24.11;33.45;94582.91;4931616;29;20111;-77
2021/01/16 07:26:36;;;;;;;4.00;2.25;;;;;;;24.05;33.27;94574.09;4931456;29;20043;-76
2021/01/16 07:29:11;;;;;;;5.03;2.58;;;;;;;24.17;33.43;94580.81;4924863;29;20028;-75
2021/01/16 07:31:38;;;;;;;4.22;2.55;;;;;;;24.26;33.46;94583.13;4942731;28;20036;-75
2021/01/16 07:34:07;;;;;;;3.40;2.30;;;;;;;24.30;33.18;94588.97;4940350;29;20106;-72
2021/01/16 07:36:33;;;;;;;4.20;2.83;;;;;;;24.35;33.24;94590.91;4932347;29;20031;-71
2021/01/16 07:39:01;;;;;;;4.57;2.67;;;;;;;24.36;32.97;94581.44;4937228;29;20036;-86
2021/01/16 07:41:30;;;;;;;5.75;3.15;;;;;;;24.36;32.86;94592.38;4933168;29;20588;-73
2021/01/16 07:44:09;;;;;;;6.00;2.70;;;;;;;24.35;32.82;94590.91;4938430;28;20035;-74
2021/01/16 07:46:35;;;;;;;4.90;2.63;;;;;;;24.35;32.25;94586.19;4940983;29;20472;-75
2021/01/16 07:49:05;;;;;;;3.92;2.90;;;;;;;24.41;32.94;94588.81;4938795;29;20051;-75
2021/01/16 07:51:34;;;;;;;4.97;3.00;;;;;;;24.40;32.62;94587.34;4943733;29;20070;-74
2021/01/16 07:54:01;;;;;;;13.53;2.97;;;;;;;24.45;32.45;94591.94;4950127;29;20094;-76
2021/01/16 07:56:37;;;;;;;6.25;2.80;;;;;;;24.37;32.38;94572.00;4951003;29;20029;-73
2021/01/16 07:59:07;;;;;;;6.25;2.50;;;;;;;24.48;31.95;94593.63;4933079;29;20028;-75
2021/01/16 08:01:39;;;;;;;4.70;2.38;;;;;;;24.56;32.63;94589.00;4932553;29;20024;-73
2021/01/16 08:04:23;;;;;;;3.95;2.33;;;;;;;24.63;32.46;94593.81;4935906;29;20489;-73
2021/01/16 08:07:08;;;;;;;6.20;2.90;;;;;;;24.56;32.31;94562.44;4936528;29;20031;-77
2021/01/16 08:09:47;;;;;;;4.68;2.45;;;;;;;24.64;32.38;94589.84;4935185;29;20107;-76
2021/01/16 08:12:13;;;;;;;5.22;2.38;;;;;;;24.66;32.72;94592.75;4935684;29;20054;-81
2021/01/16 08:14:38;;;;;;;5.15;2.72;;;;;;;24.66;32.12;94596.22;4935086;29;20552;-86
2021/01/16 08:17:04;;;;;;;5.75;2.60;;;;;;;24.69;32.88;94608.81;4936441;29;20036;-76
2021/01/16 08:19:33;;;;;;;6.78;2.53;;;;;;;24.74;32.36;94601.78;4935164;29;20031;-74
2021/01/16 08:21:58;;;;;;;6.50;2.90;;;;;;;24.76;32.72;94612.91;4939150;29;20508;-73
2021/01/16 08:24:25;;;;;;;7.72;2.80;;;;;;;24.67;33.06;94588.78;4936671;29;20066;-82
2021/01/16 08:26:58;;;;;;;4.63;2.42;;;;;;;24.82;32.38;94610.81;4940507;29;20028;-74
2021/01/16 08:29:24;;;;;;;7.20;2.45;;;;;;;24.85;32.48;94611.22;4941553;29;20452;-78
2021/01/16 08:32:09;;;;;;;6.35;2.28;;;;;;;24.88;32.46;94620.34;4937368;29;20036;-77
2021/01/16 08:35:01;;;;;;;4.15;2.25;;;;;;;24.83;32.53;94616.47;4936557;29;20424;-74
2021/01/16 08:37:47;;;;;;;4.95;2.30;;;;;;;24.87;32.51;94608.69;4935843;29;20039;-75
2021/01/16 08:40:12;;;;;;;7.10;2.60;;;;;;;24.83;32.45;94613.75;4954667;29;20501;-75
2021/01/16 08:42:53;;;;;;;5.70;2.55;;;;;;;24.82;31.84;94632.66;4954918;28;20114;-76
2021/01/16 08:45:19;;;;;;;5.65;2.70;;;;;;;24.82;32.12;94632.66;4954410;28;20035;-75
2021/01/16 08:48:00;;;;;;;6.38;2.75;;;;;;;24.79;31.86;94637.19;4954570;28;20027;-76
2021/01/16 08:50:30;;;;;;;4.15;2.35;;;;;;;24.71;32.17;94613.75;4954407;28;20029;-74
2021/01/16 08:52:56;;;;;;;4.07;2.35;;;;;;;24.65;31.99;94627.53;4953990;28;20027;-73
2021/01/16 08:55:29;;;;;;;4.97;2.75;;;;;;;24.48;32.11;94615.47;4953708;28;20146;-75
2021/01/16 08:58:08;;;;;;;6.55;2.60;;;;;;;24.28;32.17;94613.34;4954314;28;20098;-75
2021/01/16 09:00:34;;;;;;;3.55;2.10;;;;;;;24.18;32.74;94604.09;4954069;28;20111;-75
2021/01/16 09:03:17;;;;;;;3.55;2.10;;;;;;;24.18;32.69;94625.91;4954047;28;20523;-74
2021/01/16 09:05:44;;;;;;;4.68;2.90;;;;;;;24.15;32.72;94610.59;4954069;28;20109;-74
2021/01/16 09:08:22;;;;;;;3.88;2.35;;;;;;;24.15;32.34;94609.88;4954085;28;20126;-75
2021/01/16 09:10:48;;;;;;;4.70;2.53;;;;;;;24.14;32.24;94609.13;4954727;28;20031;-75
2021/01/16 09:13:27;;;;;;;3.60;2.22;;;;;;;24.09;32.57;94612.69;4952047;28;20035;-75
2021/01/16 09:15:53;;;;;;;3.65;2.15;;;;;;;24.02;32.64;94602.41;4954230;28;20038;-75
2021/01/16 09:18:19;;;;;;;2.70;2.08;;;;;;;23.95;33.02;94597.56;4953444;28;20500;-75
2021/01/16 09:20:53;;;;;;;3.97;2.58;;;;;;;23.88;33.11;94609.13;4953531;28;20090;-76
2021/01/16 09:23:18;;;;;;;4.13;2.45;;;;;;;23.85;33.01;94600.50;4953973;28;20030;-76
2021/01/16 09:25:47;;;;;;;4.00;2.65;;;;;;;23.78;32.92;94587.47;4953499;28;20035;-75
2021/01/16 09:28:13;;;;;;;5.18;2.50;;;;;;;23.76;32.73;94592.72;4953107;28;20078;-75
2021/01/16 09:30:38;;;;;;;4.05;2.30;;;;;;;23.71;32.71;94588.09;4953571;28;20086;-76
2021/01/16 09:33:23;;;;;;;3.10;2.30;;;;;;;23.73;33.26;94591.03;4968584;28;20036;-76
2021/01/16 09:35:48;;;;;;;3.17;2.40;;;;;;;23.69;32.76;94590.59;4953423;28;20062;-76
2021/01/16 09:38:20;;;;;;;3.83;2.40;;;;;;;23.70;32.69;94575.72;4953224;28;20031;-75
2021/01/16 09:40:46;;;;;;;3.78;2.30;;;;;;;23.66;32.99;94575.28;4953681;28;20034;-76
2021/01/16 09:43:18;;;;;;;3.65;2.20;;;;;;;23.63;33.06;94568.13;4953206;28;20027;-75
2021/01/16 09:45:53;;;;;;;3.40;2.22;;;;;;;23.53;33.01;94570.53;4953151;28;20496;-75
2021/01/16 09:48:36;;;;;;;3.97;2.50;;;;;;;23.54;33.27;94568.53;4952619;28;20034;-76
2021/01/16 09:51:02;;;;;;;3.58;2.42;;;;;;;23.49;33.03;94561.19;4952573;28;20115;-75
2021/01/16 09:53:28;;;;;;;3.13;2.10;;;;;;;23.28;33.26;94530.31;4952460;28;20027;-74
2021/01/16 09:55:54;;;;;;;3.42;2.58;;;;;;;23.45;33.08;94555.28;4967347;28;20028;-76
2021/01/16 09:58:35;;;;;;;3.30;2.10;;;;;;;23.25;33.16;94525.91;4967298;28;20504;-76
2021/01/16 10:01:22;;;;;;;3.30;2.35;;;;;;;23.41;33.30;94555.59;4952630;28;20054;-76
2021/01/16 10:03:49;;;;;;;3.85;2.00;;;;;;;23.27;33.47;94537.00;4952409;28;20093;-75
2021/01/16 10:06:18;;;;;;;3.40;2.25;;;;;;;23.36;33.29;94552.97;4952168;28;20043;-76
2021/01/16 10:08:44;;;;;;;3.67;2.30;;;;;;;23.33;33.44;94547.81;4952327;28;20030;-76
2021/01/16 10:11:10;;;;;;;3.70;2.50;;;;;;;23.30;33.14;94544.13;4952192;28;20057;-75
2021/01/16 10:13:36;;;;;;;3.60;2.47;;;;;;;23.29;33.18;94553.59;4952232;28;20030;-75
2021/01/16 10:16:06;;;;;;;3.75;2.17;;;;;;;23.28;33.48;94551.38;4952016;28;20031;-74
2021/01/16 10:18:32;;;;;;;6.60;2.25;;;;;;;23.26;33.38;94538.28;4952315;28;20134;-75
2021/01/16 10:21:11;;;;;;;3.55;2.28;;;;;;;23.26;33.35;94543.72;4951981;28;20043;-75
2021/01/16 10:23:38;;;;;;;3.58;2.47;;;;;;;23.29;33.23;94537.22;4951791;28;20035;-75
2021/01/16 10:26:06;;;;;;;2.90;2.10;;;;;;;23.31;32.95;94534.72;4950596;29;20508;-75
2021/01/16 10:28:34;;;;;;;3.40;2.42;;;;;;;23.33;33.04;94532.19;4950929;29;20031;-77
2021/01/16 10:31:07;;;;;;;3.63;2.10;;;;;;;23.31;33.08;94514.91;4950572;29;20031;-75
2021/01/16 10:33:42;;;;;;;3.05;1.95;;;;;;;23.32;33.04;94519.84;4951904;28;20050;-74
2021/01/16 10:36:11;;;;;;;3.40;2.20;;;;;;;23.27;33.36;94507.03;4951722;28;20050;-74
2021/01/16 10:38:47;;;;;;;35.90;4.87;;;;;;;23.30;33.00;94522.34;4951447;28;20037;-73
2021/01/16 10:41:15;;;;;;;11.60;2.55;;;;;;;23.33;33.03;94499.50;4951885;28;20031;-74
2021/01/16 10:43:40;;;;;;;8.68;2.60;;;;;;;23.32;33.31;94495.31;4950115;28;20035;-76
2021/01/16 10:46:09;;;;;;;8.55;2.70;;;;;;;23.10;28.57;94509.31;4951318;28;20086;-76
2021/01/16 10:48:37;;;;;;;14.52;3.72;;;;;;;23.17;32.94;94503.25;4950159;28;20034;-75
2021/01/16 10:51:10;;;;;;;7.63;2.63;;;;;;;23.20;33.51;94502.22;4932657;29;20522;-75
2021/01/16 10:53:37;;;;;;;8.18;2.53;;;;;;;23.22;33.57;94488.78;4940866;29;20027;-75
2021/01/16 10:56:23;;;;;;;7.60;3.00;;;;;;;23.27;33.65;94493.41;4941199;29;20485;-74
2021/01/16 10:58:49;;;;;;;9.88;3.10;;;;;;;23.28;33.88;94491.44;4939744;29;20031;-75
2021/01/16 11:01:14;;;;;;;6.30;2.25;;;;;;;23.31;33.39;94490.41;4943607;29;20038;-76
2021/01/16 11:03:40;;;;;;;7.43;2.65;;;;;;;23.30;33.46;94492.38;4933941;29;20046;-75
2021/01/16 11:06:07;;;;;;;6.20;2.80;;;;;;;23.37;33.80;94491.75;4936833;29;20429;-75
2021/01/16 11:08:34;;;;;;;6.07;2.78;;;;;;;23.27;33.47;94468.91;4930985;29;20420;-75
2021/01/16 11:11:00;;;;;;;3.92;2.50;;;;;;;23.38;33.92;94487.78;4931954;29;20497;-74
2021/01/16 11:13:34;;;;;;;5.97;2.58;;;;;;;23.31;33.86;94477.50;4936643;29;20031;-74
2021/01/16 11:16:24;;;;;;;8.07;3.05;;;;;;;23.33;33.75;94485.88;4955002;28;20497;-75
2021/01/16 11:18:50;;;;;;;;;;;;;;;23.33;33.83;94488.59;4943167;29;20421;-74
2021/01/16 11:21:36;;;;;;;5.75;2.30;;;;;;;23.37;34.08;94473.41;4940395;29;19929;-74
2021/01/16 11:24:32;;;;;;;5.63;2.47;;;;;;;23.31;34.26;94485.69;4941778;29;20023;-75
2021/01/16 11:26:59;;;;;;;5.93;2.63;;;;;;;23.33;33.93;94477.72;4931870;29;20031;-75
2021/01/16 11:29:30;;;;;;;4.90;2.80;;;;;;;23.35;34.04;94479.91;4946791;29;20055;-73
2021/01/16 11:31:55;;;;;;;6.88;2.58;;;;;;;23.33;34.01;94474.97;4915232;29;20035;-75
2021/01/16 11:34:22;;;;;;;4.15;2.35;;;;;;;23.32;33.75;94476.25;4923306;29;20033;-74
2021/01/16 11:37:01;;;;;;;4.18;2.40;;;;;;;23.28;34.21;94470.38;4933078;29;20027;-76
2021/01/16 11:39:43;;;;;;;8.00;2.35;;;;;;;23.14;34.17;94460.72;4949522;28;20026;-73
2021/01/16 11:42:10;;;;;;;4.50;2.47;;;;;;;23.21;33.84;94470.97;4915284;29;20035;-73